Time;durP1;ratioP1;P1;durP2;ratioP2;P2;SDS_P1;SDS_P2;PMS_P1;PMS_P2;Temp;Humidity;BMP_temperature;BMP_pressure;BME280_temperature;BME280_humidity;BME280_pressure;Samples;Min_cycle;Max_cycle;Signal;HPM_P1;HPM_P2
2021/05/29 00:00:16;;;;;;;3.10;2.45;;;10.30;99.90;;;;;;2081722;28;20219;-63
2021/05/29 00:01:16;;;;;;;3.95;2.47;;;10.30;99.90;;;;;;2081619;28;20191;-63
2021/05/29 00:02:18;;;;;;;3.37;2.40;;;10.30;99.90;;;;;;2081687;28;20190;-63
2021/05/29 00:03:23;;;;;;;2.80;2.50;;;10.30;99.90;;;;;;2081718;28;20183;-63
2021/05/29 00:04:23;;;;;;;2.60;2.30;;;10.30;99.90;;;;;;2073123;28;20177;-63
2021/05/29 00:05:24;;;;;;;4.43;2.13;;;10.30;99.90;;;;;;2072965;28;20280;-63
2021/05/29 00:06:25;;;;;;;2.63;2.40;;;10.30;99.90;;;;;;2081779;28;20184;-63
2021/05/29 00:07:25;;;;;;;2.90;2.47;;;10.20;99.90;;;;;;2081462;28;20184;-63
2021/05/29 00:08:26;;;;;;;2.93;2.60;;;10.20;99.90;;;;;;2081880;28;20187;-63
2021/05/29 00:09:27;;;;;;;2.60;2.40;;;10.20;99.90;;;;;;2081496;28;20588;-63
2021/05/29 00:10:28;;;;;;;3.93;2.50;;;10.30;99.90;;;;;;2081710;28;20175;-63
2021/05/29 00:11:28;;;;;;;2.97;2.30;;;10.30;99.90;;;;;;2081329;28;20806;-63
2021/05/29 00:12:29;;;;;;;2.70;2.33;;;10.30;99.90;;;;;;2081679;28;20180;-63
2021/05/29 00:13:31;;;;;;;3.33;2.47;;;10.30;99.90;;;;;;2081550;28;20176;-63
2021/05/29 00:14:34;;;;;;;3.53;2.50;;;10.40;99.90;;;;;;2072941;28;20176;-63
2021/05/29 00:15:35;;;;;;;3.80;2.50;;;10.30;99.90;;;;;;2072835;28;20633;-63
2021/05/29 00:16:36;;;;;;;3.08;2.58;;;10.30;99.90;;;;;;2073202;28;20188;-64
2021/05/29 00:17:36;;;;;;;3.30;2.27;;;10.20;99.90;;;;;;2081623;28;20185;-63
2021/05/29 00:18:38;;;;;;;3.33;2.30;;;10.20;99.90;;;;;;2081418;28;20430;-64
2021/05/29 00:19:38;;;;;;;4.32;2.80;;;10.30;99.90;;;;;;2081462;28;20283;-63
2021/05/29 00:20:40;;;;;;;3.50;2.43;;;10.20;99.90;;;;;;2081718;28;20189;-63
2021/05/29 00:21:41;;;;;;;3.75;2.20;;;10.30;99.90;;;;;;2081233;28;20202;-63
2021/05/29 00:22:41;;;;;;;3.53;2.40;;;10.30;99.90;;;;;;2081601;28;20186;-64
2021/05/29 00:23:43;;;;;;;4.30;2.50;;;10.40;99.90;;;;;;2081408;28;20178;-63
2021/05/29 00:24:44;;;;;;;4.55;2.40;;;10.40;99.90;;;;;;2081738;28;20222;-63
2021/05/29 00:25:46;;;;;;;3.70;2.53;;;10.40;99.90;;;;;;2081477;28;20184;-64
2021/05/29 00:26:47;;;;;;;3.30;2.40;;;10.30;99.90;;;;;;2081534;28;20201;-63
2021/05/29 00:27:47;;;;;;;2.80;2.43;;;10.30;99.90;;;;;;2081387;28;20212;-63
2021/05/29 00:28:48;;;;;;;3.03;2.50;;;10.40;99.90;;;;;;2081738;28;20284;-63
2021/05/29 00:29:49;;;;;;;4.83;2.60;;;10.30;99.90;;;;;;2081319;28;20197;-63
2021/05/29 00:30:50;;;;;;;4.37;2.67;;;10.30;99.90;;;;;;2081583;28;20191;-63
2021/05/29 00:31:50;;;;;;;2.85;2.58;;;10.20;99.90;;;;;;2081212;28;20187;-63
2021/05/29 00:32:51;;;;;;;3.93;2.63;;;10.20;99.90;;;;;;2081714;28;20215;-63
2021/05/29 00:33:52;;;;;;;2.33;2.10;;;10.20;99.90;;;;;;2081463;28;20263;-63
2021/05/29 00:34:53;;;;;;;3.10;2.60;;;10.30;99.90;;;;;;2081630;28;20173;-63
2021/05/29 00:35:54;;;;;;;4.60;2.53;;;10.30;99.90;;;;;;2081584;28;20802;-63
2021/05/29 00:36:55;;;;;;;3.65;2.33;;;10.20;99.90;;;;;;2081625;28;20206;-63
2021/05/29 00:37:56;;;;;;;3.03;2.50;;;10.30;99.90;;;;;;2081522;28;20672;-64
2021/05/29 00:38:56;;;;;;;2.87;2.30;;;10.30;99.90;;;;;;2081619;28;20259;-64
2021/05/29 00:39:57;;;;;;;2.33;2.10;;;10.30;99.90;;;;;;2081376;28;20722;-63
2021/05/29 00:40:58;;;;;;;2.97;2.67;;;10.30;99.90;;;;;;2081511;28;20183;-63
2021/05/29 00:41:59;;;;;;;2.90;2.50;;;10.20;99.90;;;;;;2081287;28;20198;-63
2021/05/29 00:43:00;;;;;;;3.77;2.70;;;10.20;99.90;;;;;;2081454;28;20201;-63
2021/05/29 00:44:01;;;;;;;3.28;2.58;;;10.20;99.90;;;;;;2081374;28;20556;-63
2021/05/29 00:45:02;;;;;;;3.80;2.50;;;10.20;99.90;;;;;;2081442;28;20184;-63
2021/05/29 00:46:04;;;;;;;4.28;2.42;;;10.20;99.90;;;;;;2081348;28;20264;-63
2021/05/29 00:47:05;;;;;;;2.60;2.40;;;10.20;99.90;;;;;;2081478;28;20569;-63
2021/05/29 00:48:06;;;;;;;3.50;2.57;;;10.10;99.90;;;;;;2081433;28;20855;-63
2021/05/29 00:49:07;;;;;;;3.00;2.10;;;10.20;99.90;;;;;;2081406;28;20754;-63
2021/05/29 00:50:11;;;;;;;3.03;2.50;;;10.20;99.90;;;;;;2081433;28;20211;-63
2021/05/29 00:51:12;;;;;;;4.30;2.45;;;10.20;99.90;;;;;;2081100;28;20271;-63
2021/05/29 00:52:14;;;;;;;2.40;2.20;;;10.20;99.90;;;;;;2081455;28;20177;-63
2021/05/29 00:53:18;;;;;;;3.20;2.55;;;10.20;99.90;;;;;;2081296;28;20545;-63
2021/05/29 00:54:18;;;;;;;4.13;2.78;;;10.20;99.90;;;;;;2081744;28;20229;-63
2021/05/29 00:55:19;;;;;;;3.03;2.40;;;10.10;99.90;;;;;;2081455;28;20608;-63
2021/05/29 00:56:23;;;;;;;2.80;2.43;;;10.20;99.90;;;;;;2081073;28;20176;-63
2021/05/29 00:57:23;;;;;;;4.70;2.67;;;10.20;99.90;;;;;;2081347;28;20192;-63
2021/05/29 00:58:26;;;;;;;3.00;2.30;;;10.20;99.90;;;;;;2072702;28;20267;-63
2021/05/29 00:59:27;;;;;;;2.72;2.50;;;10.20;99.90;;;;;;2064756;28;20191;-63
2021/05/29 01:00:27;;;;;;;2.77;2.50;;;10.20;99.90;;;;;;2072733;28;20192;-63
2021/05/29 01:01:28;;;;;;;6.17;2.73;;;10.20;99.90;;;;;;2080891;28;20903;-63
2021/05/29 01:02:29;;;;;;;4.15;2.63;;;10.20;99.90;;;;;;2081582;28;20187;-63
2021/05/29 01:03:34;;;;;;;3.67;2.57;;;10.10;99.90;;;;;;2081481;28;20198;-64
2021/05/29 01:04:36;;;;;;;4.68;2.78;;;10.20;99.90;;;;;;2081406;28;20265;-63
2021/05/29 01:05:37;;;;;;;3.97;2.85;;;10.20;99.90;;;;;;2081375;28;20251;-63
2021/05/29 01:06:38;;;;;;;4.25;2.72;;;10.20;99.90;;;;;;2081319;28;20187;-63
2021/05/29 01:07:39;;;;;;;2.67;2.40;;;10.20;99.90;;;;;;2081155;28;20707;-63
2021/05/29 01:08:40;;;;;;;2.77;2.50;;;10.10;99.90;;;;;;2081376;28;20181;-63
2021/05/29 01:09:43;;;;;;;3.33;2.57;;;10.10;99.90;;;;;;2081065;28;20223;-63
2021/05/29 01:10:43;;;;;;;2.80;2.42;;;10.10;99.90;;;;;;2072618;28;20169;-63
2021/05/29 01:11:44;;;;;;;3.60;2.70;;;10.10;99.90;;;;;;2064188;28;20181;-63
2021/05/29 01:12:45;;;;;;;3.53;2.77;;;10.00;99.90;;;;;;2072618;28;20228;-63
2021/05/29 01:13:46;;;;;;;3.97;3.00;;;10.00;99.90;;;;;;2081267;28;20307;-63
2021/05/29 01:14:57;;;;;;;3.53;2.87;;;10.00;99.90;;;;;;2081478;28;20687;-63
2021/05/29 01:16:43;;;;;;;3.35;2.95;;;10.00;99.90;;;;;;2081406;28;20169;-63
2021/05/29 01:17:24;;;;;;;4.15;2.60;;;10.00;99.90;;;;;;2072831;28;20201;-63
2021/05/29 01:18:25;;;;;;;3.60;2.90;;;10.00;99.90;;;;;;2081077;28;20238;-63
2021/05/29 01:19:27;;;;;;;3.53;3.10;;;10.00;99.90;;;;;;2081271;28;20196;-63
2021/05/29 01:20:27;;;;;;;2.70;2.50;;;10.10;99.90;;;;;;2081259;28;20187;-63
2021/05/29 01:21:28;;;;;;;4.10;2.70;;;10.10;99.90;;;;;;2083672;28;20192;-63
2021/05/29 01:22:48;;;;;;;3.10;2.80;;;10.10;99.90;;;;;;2081162;28;20187;-63
2021/05/29 01:23:48;;;;;;;3.45;3.03;;;10.10;99.90;;;;;;2081161;28;20167;-63
2021/05/29 01:24:49;;;;;;;4.00;2.70;;;10.00;99.90;;;;;;2081307;28;20194;-63
2021/05/29 01:25:50;;;;;;;3.23;2.80;;;10.00;99.90;;;;;;2081237;28;20187;-63
2021/05/29 01:26:53;;;;;;;5.47;3.50;;;9.90;99.90;;;;;;2081416;28;20659;-63
2021/05/29 01:28:03;;;;;;;4.25;2.80;;;9.90;99.90;;;;;;2081128;28;20754;-63
2021/05/29 01:29:03;;;;;;;2.97;2.67;;;9.90;99.90;;;;;;2081224;28;20171;-63
2021/05/29 01:30:06;;;;;;;3.33;2.60;;;9.80;99.90;;;;;;2081080;28;20198;-63
2021/05/29 01:31:09;;;;;;;4.05;3.30;;;9.80;99.90;;;;;;2081212;28;20185;-63
2021/05/29 01:32:09;;;;;;;4.47;3.20;;;9.80;99.90;;;;;;2081032;28;20177;-63
2021/05/29 01:33:13;;;;;;;3.77;2.90;;;9.80;99.90;;;;;;2081261;28;20191;-63
2021/05/29 01:34:15;;;;;;;4.28;3.00;;;9.80;99.90;;;;;;2081007;28;20185;-63
2021/05/29 01:35:16;;;;;;;9.82;2.83;;;9.70;99.90;;;;;;2080918;28;20684;-63
2021/05/29 01:36:17;;;;;;;3.30;2.83;;;9.80;99.90;;;;;;2080499;28;20178;-63
2021/05/29 01:37:18;;;;;;;4.53;2.70;;;9.80;99.90;;;;;;2072324;28;20179;-63
2021/05/29 01:38:22;;;;;;;3.23;2.80;;;9.80;99.90;;;;;;2072213;28;20208;-63
2021/05/29 01:39:22;;;;;;;3.33;2.72;;;9.80;99.90;;;;;;2080623;28;20197;-63
2021/05/29 01:40:23;;;;;;;3.30;2.87;;;9.80;99.90;;;;;;2080793;28;20726;-63
2021/05/29 01:41:24;;;;;;;2.83;2.63;;;9.80;99.90;;;;;;2080896;28;20647;-63
2021/05/29 01:42:26;;;;;;;4.10;2.58;;;9.70;99.90;;;;;;2081037;28;20178;-63
2021/05/29 01:43:27;;;;;;;2.92;2.67;;;9.70;99.90;;;;;;2080407;28;20185;-63
2021/05/29 01:44:28;;;;;;;3.30;3.00;;;9.70;99.90;;;;;;2080213;28;20597;-63
2021/05/29 01:45:29;;;;;;;3.17;2.40;;;9.70;99.90;;;;;;2080205;28;20506;-63
2021/05/29 01:46:30;;;;;;;3.05;2.60;;;9.60;99.90;;;;;;2080251;28;20193;-63
2021/05/29 01:47:33;;;;;;;4.37;2.97;;;9.60;99.90;;;;;;2080317;28;20183;-63
2021/05/29 01:48:41;;;;;;;3.97;2.75;;;9.50;99.90;;;;;;2080996;28;20202;-63
2021/05/29 01:49:42;;;;;;;3.47;2.83;;;9.50;99.90;;;;;;2081024;28;20509;-63
2021/05/29 01:50:46;;;;;;;5.07;3.07;;;9.40;99.90;;;;;;2081025;28;20189;-63
2021/05/29 01:51:47;;;;;;;3.58;2.95;;;9.40;99.90;;;;;;2080676;28;20180;-63
2021/05/29 01:52:58;;;;;;;3.47;3.00;;;9.40;99.90;;;;;;2080202;28;20173;-63
2021/05/29 01:53:58;;;;;;;3.30;3.00;;;9.40;99.90;;;;;;2080484;28;20180;-63
2021/05/29 01:54:59;;;;;;;3.20;2.90;;;9.40;99.90;;;;;;2080852;28;20264;-63
2021/05/29 01:56:01;;;;;;;4.13;2.80;;;9.50;99.90;;;;;;2080948;28;20173;-64
2021/05/29 01:57:02;;;;;;;3.17;2.88;;;9.40;99.90;;;;;;2080718;28;20259;-63
2021/05/29 01:58:03;;;;;;;3.35;2.63;;;9.40;99.90;;;;;;2080947;28;20181;-63
2021/05/29 01:59:03;;;;;;;5.40;2.70;;;9.40;99.90;;;;;;2080857;28;20183;-63
2021/05/29 02:00:06;;;;;;;4.03;2.90;;;9.40;99.90;;;;;;2080870;28;20202;-63
2021/05/29 02:01:08;;;;;;;7.60;3.15;;;9.50;99.90;;;;;;2080566;28;20226;-63
2021/05/29 02:02:09;;;;;;;3.28;2.97;;;9.50;99.90;;;;;;2080939;28;20186;-63
2021/05/29 02:03:10;;;;;;;3.03;2.73;;;9.50;99.90;;;;;;2080795;28;20764;-63
2021/05/29 02:04:11;;;;;;;3.83;3.15;;;9.50;99.90;;;;;;2080746;28;20610;-63
2021/05/29 02:05:22;;;;;;;3.93;3.43;;;9.60;99.90;;;;;;2080930;28;20192;-63
2021/05/29 02:06:23;;;;;;;3.90;3.55;;;9.60;99.90;;;;;;2081047;28;20206;-63
2021/05/29 02:07:24;;;;;;;3.65;3.28;;;9.60;99.90;;;;;;2080426;28;20190;-63
2021/05/29 02:08:25;;;;;;;3.53;3.20;;;9.60;99.90;;;;;;2080402;28;20297;-63
2021/05/29 02:09:26;;;;;;;4.13;3.08;;;9.50;99.90;;;;;;2080777;28;20271;-63
2021/05/29 02:10:29;;;;;;;4.07;3.33;;;9.50;99.90;;;;;;2080169;28;20579;-64
2021/05/29 02:11:30;;;;;;;4.30;3.20;;;9.40;99.90;;;;;;2080087;28;20317;-63
2021/05/29 02:12:38;;;;;;;4.60;3.33;;;9.40;99.90;;;;;;2080821;28;20642;-64
2021/05/29 02:13:42;;;;;;;3.88;3.30;;;9.40;99.90;;;;;;2080683;28;20157;-64
2021/05/29 02:14:43;;;;;;;5.43;3.30;;;9.30;99.90;;;;;;2080884;28;20182;-64
2021/05/29 02:15:43;;;;;;;5.10;3.30;;;9.30;99.90;;;;;;2080782;28;20178;-64
2021/05/29 02:16:44;;;;;;;4.20;3.47;;;9.30;99.90;;;;;;2080887;28;20186;-63
2021/05/29 02:17:49;;;;;;;3.50;3.13;;;9.30;99.90;;;;;;2080830;28;20204;-62
2021/05/29 02:18:50;;;;;;;4.03;3.20;;;9.30;99.90;;;;;;2080603;28;20653;-63
2021/05/29 02:19:51;;;;;;;4.30;3.13;;;9.40;99.90;;;;;;2080082;28;20273;-64
2021/05/29 02:21:03;;;;;;;3.90;3.50;;;9.30;99.90;;;;;;2080209;28;20704;-63
2021/05/29 02:22:04;;;;;;;4.32;3.08;;;9.30;99.90;;;;;;2079849;28;20163;-63
2021/05/29 02:23:07;;;;;;;3.13;2.90;;;9.30;99.90;;;;;;2080224;28;20178;-63
2021/05/29 02:24:07;;;;;;;5.95;3.40;;;9.30;99.90;;;;;;2080656;28;20181;-63
2021/05/29 02:25:09;;;;;;;3.43;3.13;;;9.30;99.90;;;;;;2080771;28;20187;-63
2021/05/29 02:26:13;;;;;;;4.07;3.10;;;9.20;99.90;;;;;;2080796;28;20270;-63
2021/05/29 02:27:14;;;;;;;4.60;3.25;;;9.20;99.90;;;;;;2080906;28;20599;-63
2021/05/29 02:28:16;;;;;;;5.47;3.60;;;9.20;99.90;;;;;;2080604;28;20305;-63
2021/05/29 02:29:16;;;;;;;4.22;3.30;;;9.20;99.90;;;;;;2080765;28;20192;-64
2021/05/29 02:30:17;;;;;;;6.30;3.40;;;9.20;99.90;;;;;;2080511;28;20198;-63
2021/05/29 02:31:19;;;;;;;3.63;3.33;;;9.10;99.90;;;;;;2080525;28;20617;-64
2021/05/29 02:32:20;;;;;;;4.68;3.30;;;9.10;99.90;;;;;;2080719;28;20695;-63
2021/05/29 02:33:22;;;;;;;3.90;3.13;;;9.10;99.90;;;;;;2080791;28;20187;-63
2021/05/29 02:34:22;;;;;;;4.45;3.50;;;9.10;99.90;;;;;;2080933;28;20190;-63
2021/05/29 02:35:23;;;;;;;5.93;3.63;;;9.10;99.90;;;;;;2080581;28;20209;-63
2021/05/29 02:36:24;;;;;;;4.93;3.57;;;9.20;99.90;;;;;;2080806;28;20216;-63
2021/05/29 02:37:24;;;;;;;4.63;3.60;;;9.30;99.90;;;;;;2080742;28;20179;-63
2021/05/29 02:38:25;;;;;;;3.90;3.43;;;9.20;99.90;;;;;;2080824;28;20244;-63
2021/05/29 02:39:26;;;;;;;5.03;3.00;;;9.20;99.90;;;;;;2080654;28;20325;-63
2021/05/29 02:40:27;;;;;;;4.13;3.13;;;9.20;99.90;;;;;;2080670;28;20197;-64
2021/05/29 02:41:27;;;;;;;4.90;3.60;;;9.20;99.90;;;;;;2080373;28;20811;-63
2021/05/29 02:42:28;;;;;;;4.20;3.43;;;9.20;99.90;;;;;;2080763;28;20228;-63
2021/05/29 02:43:29;;;;;;;3.73;3.33;;;9.20;99.90;;;;;;2080536;28;20193;-63
2021/05/29 02:44:30;;;;;;;3.97;3.50;;;9.20;99.90;;;;;;2080823;28;20178;-63
2021/05/29 02:45:31;;;;;;;5.23;3.60;;;9.20;99.90;;;;;;2080672;28;20209;-64
2021/05/29 02:46:31;;;;;;;4.95;3.80;;;9.10;99.90;;;;;;2080596;28;20659;-63
2021/05/29 02:47:32;;;;;;;3.97;3.33;;;9.20;99.90;;;;;;2080635;28;20213;-63
2021/05/29 02:48:34;;;;;;;5.17;3.87;;;9.20;99.90;;;;;;2080825;28;20559;-63
2021/05/29 02:49:35;;;;;;;4.78;3.85;;;9.10;99.90;;;;;;2074401;28;20478;-63
2021/05/29 02:50:36;;;;;;;6.43;3.97;;;9.10;99.90;;;;;;2080199;28;20686;-63
2021/05/29 02:51:37;;;;;;;6.82;3.75;;;9.10;99.90;;;;;;2080920;28;20196;-63
2021/05/29 02:52:38;;;;;;;3.77;3.37;;;9.20;99.90;;;;;;2086797;28;20197;-63
2021/05/29 02:53:39;;;;;;;4.70;3.60;;;9.20;99.90;;;;;;2088812;28;20189;-63
2021/05/29 02:54:43;;;;;;;4.73;3.60;;;9.30;99.90;;;;;;2088895;28;20675;-63
2021/05/29 02:55:44;;;;;;;4.07;3.70;;;9.30;99.90;;;;;;2088796;28;20182;-63
2021/05/29 02:56:45;;;;;;;6.10;3.88;;;9.40;99.90;;;;;;2088930;28;20242;-63
2021/05/29 02:57:46;;;;;;;4.73;3.37;;;9.40;99.90;;;;;;2088822;28;20233;-63
2021/05/29 02:58:46;;;;;;;3.77;3.43;;;9.40;99.90;;;;;;2088889;28;20566;-63
2021/05/29 02:59:47;;;;;;;5.10;3.70;;;9.30;99.90;;;;;;2088804;28;20256;-63
2021/05/29 03:00:50;;;;;;;3.97;3.23;;;9.20;99.90;;;;;;2088908;28;20176;-63
2021/05/29 03:01:51;;;;;;;4.13;3.70;;;9.10;99.90;;;;;;2079557;28;20688;-63
2021/05/29 03:02:52;;;;;;;6.03;3.73;;;9.10;99.90;;;;;;2079999;28;20173;-63
2021/05/29 03:03:53;;;;;;;4.18;3.47;;;9.10;99.90;;;;;;2080014;28;20185;-63
2021/05/29 03:04:54;;;;;;;4.13;3.63;;;9.10;99.90;;;;;;2080105;28;20234;-63
2021/05/29 03:05:54;;;;;;;4.07;3.67;;;9.00;99.90;;;;;;2088747;28;20657;-63
2021/05/29 03:06:55;;;;;;;4.07;3.60;;;9.00;99.90;;;;;;2088925;28;20196;-63
2021/05/29 03:07:56;;;;;;;5.43;3.83;;;9.10;99.90;;;;;;2088591;28;20209;-63
2021/05/29 03:08:58;;;;;;;4.53;3.40;;;9.10;99.90;;;;;;2088976;28;20205;-63
2021/05/29 03:10:00;;;;;;;4.13;3.67;;;9.20;99.90;;;;;;2088646;28;20204;-63
2021/05/29 03:11:01;;;;;;;5.03;3.50;;;9.20;99.90;;;;;;2089049;28;20209;-63
2021/05/29 03:12:03;;;;;;;4.90;3.77;;;9.30;99.90;;;;;;2088584;28;20174;-63
2021/05/29 03:13:08;;;;;;;5.68;3.88;;;9.30;99.90;;;;;;2088795;28;20192;-63
2021/05/29 03:14:09;;;;;;;4.88;3.90;;;9.20;99.90;;;;;;2088810;28;20649;-63
2021/05/29 03:15:14;;;;;;;5.57;3.87;;;9.20;99.90;;;;;;2088972;28;20174;-63
2021/05/29 03:16:15;;;;;;;4.35;3.92;;;9.20;99.90;;;;;;2086979;28;20255;-64
2021/05/29 03:17:17;;;;;;;4.30;3.90;;;9.20;99.90;;;;;;2080704;28;20727;-64
2021/05/29 03:18:17;;;;;;;6.32;4.05;;;9.20;99.90;;;;;;2079887;28;20192;-63
2021/05/29 03:19:18;;;;;;;4.60;3.57;;;9.20;99.90;;;;;;2080797;28;20187;-64
2021/05/29 03:20:23;;;;;;;4.10;3.70;;;9.20;99.90;;;;;;2082195;28;20215;-64
2021/05/29 03:21:24;;;;;;;3.55;3.25;;;9.20;99.90;;;;;;2081899;28;20521;-64
2021/05/29 03:22:25;;;;;;;4.67;3.73;;;9.30;99.90;;;;;;2082231;28;20264;-64
2021/05/29 03:23:26;;;;;;;4.97;4.07;;;9.30;99.90;;;;;;2082029;28;20696;-64
2021/05/29 03:24:27;;;;;;;4.97;3.53;;;9.40;99.90;;;;;;2081849;28;20207;-64
2021/05/29 03:25:28;;;;;;;4.50;3.73;;;9.40;99.90;;;;;;2081838;28;20179;-64
2021/05/29 03:26:28;;;;;;;4.88;3.58;;;9.30;99.90;;;;;;2082070;28;20204;-63
2021/05/29 03:27:30;;;;;;;4.30;3.50;;;9.30;99.90;;;;;;2081906;28;20544;-63
2021/05/29 03:28:30;;;;;;;4.72;3.67;;;9.30;99.90;;;;;;2082031;28;20192;-63
2021/05/29 03:29:31;;;;;;;5.13;3.57;;;9.30;99.90;;;;;;2081877;28;20742;-63
2021/05/29 03:30:32;;;;;;;6.20;3.80;;;9.40;99.90;;;;;;2082263;28;20202;-64
2021/05/29 03:31:33;;;;;;;4.15;3.75;;;9.40;99.90;;;;;;2081630;28;20212;-64
2021/05/29 03:32:34;;;;;;;4.50;3.63;;;9.40;99.90;;;;;;2082014;28;20187;-63
2021/05/29 03:33:35;;;;;;;6.23;3.80;;;9.30;99.90;;;;;;2081851;28;20209;-63
2021/05/29 03:34:35;;;;;;;4.77;3.20;;;9.30;99.90;;;;;;2082050;28;20717;-63
2021/05/29 03:35:36;;;;;;;4.73;3.80;;;9.30;99.90;;;;;;2081701;28;20177;-63
2021/05/29 03:36:37;;;;;;;5.87;3.67;;;9.20;99.90;;;;;;2081876;28;20213;-64
2021/05/29 03:37:39;;;;;;;4.10;3.70;;;9.20;99.90;;;;;;2081729;28;20678;-63
2021/05/29 03:38:41;;;;;;;4.78;3.53;;;9.20;99.90;;;;;;2081838;28;20727;-64
2021/05/29 03:39:42;;;;;;;4.80;4.20;;;9.20;99.90;;;;;;2081832;28;20188;-63
2021/05/29 03:40:43;;;;;;;4.77;3.90;;;9.30;99.90;;;;;;2081946;28;20190;-63
2021/05/29 03:41:43;;;;;;;4.40;4.00;;;9.30;99.90;;;;;;2081460;28;20178;-63
2021/05/29 03:42:44;;;;;;;5.13;4.00;;;9.30;99.90;;;;;;2081881;28;20545;-63
2021/05/29 03:43:45;;;;;;;3.80;3.42;;;9.30;99.90;;;;;;2081985;28;20237;-63
2021/05/29 03:44:46;;;;;;;4.27;3.80;;;9.30;99.90;;;;;;2081921;28;20762;-63
2021/05/29 03:45:46;;;;;;;4.60;4.20;;;9.30;99.90;;;;;;2081911;28;20230;-63
2021/05/29 03:46:47;;;;;;;5.30;4.00;;;9.30;99.90;;;;;;2081752;28;20183;-63
2021/05/29 03:47:49;;;;;;;4.40;3.80;;;9.30;99.90;;;;;;2081788;28;20717;-64
2021/05/29 03:48:49;;;;;;;4.25;3.85;;;9.30;99.90;;;;;;2081850;28;20233;-63
2021/05/29 03:49:50;;;;;;;5.37;4.30;;;9.30;99.90;;;;;;2081728;28;20241;-63
2021/05/29 03:50:51;;;;;;;3.70;3.40;;;9.40;99.90;;;;;;2081904;28;20172;-62
2021/05/29 03:51:52;;;;;;;5.03;3.90;;;9.40;99.90;;;;;;2081635;28;20245;-63
2021/05/29 03:52:53;;;;;;;5.67;4.03;;;9.40;99.90;;;;;;2081809;28;20197;-64
2021/05/29 03:53:54;;;;;;;4.70;4.18;;;9.40;99.90;;;;;;2081748;28;20183;-63
2021/05/29 03:54:54;;;;;;;4.43;4.03;;;9.30;99.90;;;;;;2081842;28;20258;-64
2021/05/29 03:55:55;;;;;;;4.57;3.87;;;9.30;99.90;;;;;;2081777;28;20202;-64
2021/05/29 03:56:56;;;;;;;4.23;3.83;;;9.30;99.90;;;;;;2081751;28;20563;-64
2021/05/29 03:57:57;;;;;;;4.30;3.83;;;9.30;99.90;;;;;;2081535;28;20454;-64
2021/05/29 03:58:58;;;;;;;5.37;3.97;;;9.40;99.90;;;;;;2081792;28;20186;-63
2021/05/29 03:59:58;;;;;;;4.43;3.80;;;9.40;99.90;;;;;;2081653;28;20782;-64
2021/05/29 04:00:59;;;;;;;4.17;3.80;;;9.30;99.90;;;;;;2081732;28;20210;-64
2021/05/29 04:02:00;;;;;;;5.32;3.85;;;9.40;99.90;;;;;;2081629;28;20178;-64
2021/05/29 04:03:01;;;;;;;7.97;3.90;;;9.40;99.90;;;;;;2081737;28;20554;-64
2021/05/29 04:04:02;;;;;;;4.05;3.45;;;9.40;99.90;;;;;;2081613;28;20601;-64
2021/05/29 04:05:04;;;;;;;5.37;3.40;;;9.40;99.90;;;;;;2081669;28;20198;-63
2021/05/29 04:06:04;;;;;;;4.40;3.40;;;9.40;99.90;;;;;;2081845;28;20199;-64
2021/05/29 04:07:05;;;;;;;4.07;3.43;;;9.40;99.90;;;;;;2081600;28;20182;-64
2021/05/29 04:08:06;;;;;;;5.00;3.70;;;9.40;99.90;;;;;;2081635;28;20209;-64
2021/05/29 04:09:08;;;;;;;4.47;3.60;;;9.40;99.90;;;;;;2081448;28;20184;-64
2021/05/29 04:10:23;;;;;;;4.55;4.13;;;9.50;99.90;;;;;;2081515;28;20262;-64
2021/05/29 04:11:24;;;;;;;4.63;3.90;;;9.40;99.90;;;;;;2081505;28;20166;-63
2021/05/29 04:12:25;;;;;;;4.73;3.70;;;9.40;99.90;;;;;;2081542;28;20722;-63
2021/05/29 04:13:26;;;;;;;4.30;3.90;;;9.50;99.90;;;;;;2081541;28;20217;-64
2021/05/29 04:14:26;;;;;;;5.30;4.20;;;9.60;99.90;;;;;;2081457;28;20185;-64
2021/05/29 04:15:28;;;;;;;5.27;4.03;;;9.60;99.90;;;;;;2081644;28;20228;-63
2021/05/29 04:16:29;;;;;;;4.25;3.65;;;9.70;99.90;;;;;;2081697;28;20183;-64
2021/05/29 04:17:30;;;;;;;3.97;3.45;;;9.60;99.90;;;;;;2081481;28;20180;-63
2021/05/29 04:18:30;;;;;;;5.17;4.03;;;9.60;99.90;;;;;;2081730;28;20187;-64
2021/05/29 04:19:31;;;;;;;4.53;3.70;;;9.60;99.90;;;;;;2081428;28;20186;-64
2021/05/29 04:20:32;;;;;;;4.00;3.70;;;9.60;99.90;;;;;;2081534;28;20227;-64
2021/05/29 04:21:32;;;;;;;3.53;3.23;;;9.60;99.90;;;;;;2081264;28;20177;-64
2021/05/29 04:22:33;;;;;;;3.67;3.27;;;9.60;99.90;;;;;;2081664;28;20528;-64
2021/05/29 04:23:34;;;;;;;4.40;3.50;;;9.50;99.90;;;;;;2081533;28;20181;-64
2021/05/29 04:24:35;;;;;;;4.63;3.73;;;9.50;99.90;;;;;;2081563;28;20190;-64
2021/05/29 04:25:36;;;;;;;3.55;3.25;;;9.50;99.90;;;;;;2081329;28;20736;-64
2021/05/29 04:26:37;;;;;;;4.23;3.20;;;9.50;99.90;;;;;;2081512;28;20273;-64
2021/05/29 04:27:38;;;;;;;3.63;3.23;;;9.50;99.90;;;;;;2081232;28;20228;-64
2021/05/29 04:28:39;;;;;;;4.65;3.38;;;9.60;99.90;;;;;;2081512;28;20184;-64
2021/05/29 04:29:40;;;;;;;4.45;3.88;;;9.60;99.90;;;;;;2080662;28;20181;-64
2021/05/29 04:30:40;;;;;;;4.57;3.50;;;9.70;99.90;;;;;;2080276;28;20179;-64
2021/05/29 04:31:41;;;;;;;6.70;3.27;;;9.60;99.90;;;;;;2081101;28;20169;-64
2021/05/29 04:32:42;;;;;;;4.23;3.60;;;9.60;99.90;;;;;;2081579;28;20610;-64
2021/05/29 04:33:43;;;;;;;3.53;3.23;;;9.60;99.90;;;;;;2081343;28;20167;-64
2021/05/29 04:34:43;;;;;;;4.77;3.23;;;9.60;99.90;;;;;;2081529;28;20604;-64
2021/05/29 04:35:44;;;;;;;4.20;3.53;;;9.60;99.90;;;;;;2081417;28;20235;-64
2021/05/29 04:36:45;;;;;;;7.60;3.60;;;9.60;99.90;;;;;;2081415;28;20224;-64
2021/05/29 04:37:47;;;;;;;4.20;3.23;;;9.70;99.90;;;;;;2081325;28;20201;-64
2021/05/29 04:38:47;;;;;;;4.28;3.42;;;9.70;99.90;;;;;;2081492;28;20179;-64
2021/05/29 04:39:48;;;;;;;4.63;3.50;;;9.80;99.90;;;;;;2081256;28;20205;-64
2021/05/29 04:40:49;;;;;;;5.57;3.80;;;9.70;99.90;;;;;;2081499;28;20221;-63
2021/05/29 04:41:50;;;;;;;5.43;3.50;;;9.70;99.90;;;;;;2081197;28;20210;-64
2021/05/29 04:42:52;;;;;;;4.03;3.63;;;9.70;99.90;;;;;;2081306;28;20183;-64
2021/05/29 04:43:52;;;;;;;5.30;3.50;;;9.70;99.90;;;;;;2081302;28;20643;-64
2021/05/29 04:44:53;;;;;;;3.97;3.27;;;9.80;99.90;;;;;;2081424;28;20207;-64
2021/05/29 04:45:54;;;;;;;3.97;3.57;;;9.80;99.90;;;;;;2081226;28;20203;-64
2021/05/29 04:47:00;;;;;;;5.07;3.83;;;9.80;99.90;;;;;;2081560;28;20751;-64
2021/05/29 04:48:01;;;;;;;4.30;3.88;;;9.90;99.90;;;;;;2081365;28;20199;-64
2021/05/29 04:49:01;;;;;;;5.40;4.43;;;9.80;99.90;;;;;;2081535;28;20651;-64
2021/05/29 04:50:05;;;;;;;4.53;3.83;;;9.80;99.90;;;;;;2077132;28;20209;-64
2021/05/29 04:51:12;;;;;;;4.30;3.90;;;9.90;99.90;;;;;;2073318;28;20187;-64
2021/05/29 04:52:12;;;;;;;5.10;4.60;;;9.90;99.90;;;;;;2073169;28;20565;-64
2021/05/29 04:53:13;;;;;;;4.40;3.80;;;9.90;99.90;;;;;;2073124;28;20268;-64
2021/05/29 04:54:15;;;;;;;4.00;3.60;;;9.90;99.90;;;;;;2072937;28;20607;-64
2021/05/29 04:55:16;;;;;;;7.25;4.25;;;10.00;99.90;;;;;;2073130;28;20203;-63
2021/05/29 04:56:17;;;;;;;5.55;4.00;;;10.00;99.90;;;;;;2073195;28;20177;-64
2021/05/29 04:57:18;;;;;;;5.47;4.00;;;10.00;99.90;;;;;;2073227;28;20205;-64
2021/05/29 04:58:22;;;;;;;4.50;3.80;;;10.10;99.90;;;;;;2073057;28;20178;-64
2021/05/29 04:59:23;;;;;;;6.68;4.72;;;10.10;99.90;;;;;;2073049;28;20184;-64
2021/05/29 05:00:23;;;;;;;5.50;4.20;;;10.30;99.90;;;;;;2073115;28;20216;-63
2021/05/29 05:01:29;;;;;;;7.03;4.23;;;10.30;99.90;;;;;;2072906;28;20549;-64
2021/05/29 05:02:30;;;;;;;5.15;4.22;;;10.20;99.90;;;;;;2073166;28;20194;-64
2021/05/29 05:03:30;;;;;;;5.80;4.20;;;10.20;99.90;;;;;;2073161;28;20182;-63
2021/05/29 05:04:31;;;;;;;6.17;4.47;;;10.20;99.90;;;;;;2072956;28;20190;-64
2021/05/29 05:05:32;;;;;;;5.53;4.13;;;10.20;99.90;;;;;;2073001;28;20188;-64
2021/05/29 05:06:33;;;;;;;6.07;4.37;;;10.20;99.90;;;;;;2073101;28;20562;-64
2021/05/29 05:07:34;;;;;;;8.50;4.30;;;10.30;99.90;;;;;;2072937;28;20193;-64
2021/05/29 05:08:35;;;;;;;4.65;4.10;;;10.20;99.90;;;;;;2073158;28;20193;-64
2021/05/29 05:09:36;;;;;;;4.60;4.20;;;10.30;99.90;;;;;;2072738;28;20191;-64
2021/05/29 05:10:36;;;;;;;4.83;4.40;;;10.30;99.90;;;;;;2072911;28;20722;-64
2021/05/29 05:11:37;;;;;;;4.93;4.43;;;10.40;99.90;;;;;;2072754;28;20185;-64
2021/05/29 05:12:38;;;;;;;4.47;4.07;;;10.30;99.90;;;;;;2072989;28;20674;-64
2021/05/29 05:13:39;;;;;;;7.83;4.33;;;10.30;99.90;;;;;;2072895;28;20431;-64
2021/05/29 05:14:40;;;;;;;5.03;3.80;;;10.30;99.90;;;;;;2073015;28;20273;-64
2021/05/29 05:15:40;;;;;;;5.97;4.20;;;10.30;99.90;;;;;;2064003;28;20209;-64
2021/05/29 05:16:41;;;;;;;6.13;4.50;;;10.30;99.90;;;;;;2064318;28;20291;-64
2021/05/29 05:17:42;;;;;;;5.57;3.97;;;10.30;99.90;;;;;;2072931;28;20223;-64
2021/05/29 05:18:44;;;;;;;5.00;4.07;;;10.30;99.90;;;;;;2072945;28;20209;-64
2021/05/29 05:19:45;;;;;;;5.72;4.05;;;10.40;99.90;;;;;;2072839;28;20180;-64
2021/05/29 05:20:46;;;;;;;6.97;5.17;;;10.40;99.90;;;;;;2073067;28;20275;-63
2021/05/29 05:21:47;;;;;;;6.55;4.85;;;10.50;99.90;;;;;;2078089;28;20186;-64
2021/05/29 05:22:48;;;;;;;4.70;4.13;;;10.40;99.90;;;;;;2081573;28;20207;-64